Amanda Park, Washington
Current Conditions -  °F | °C
As of 1:10 PM on Thursday 27 Nov 2014 (Local Time) from KHQM Reporting Station
Light Rain Light Rain  
Wind Chill: 13°   Ceiling: 800
Heat Index: 13°   Visibility: 2mi
Dew Point: 13°   Wind: 21mph
Humidity: 97%   Direction: 190°S
Pressure: 29.82"   Gusts: NA
Location:  47.46°N, 123.89°W
Report Text: KHQM 272110Z AUTO 19018KT 2SM -RA BR BKN008 BKN013 OVC026 13/13 A2982 RMK AO2 VIS 1 1/4V4 P0002 T01330128
Loading
Personal Weather Stations






























Interactive Weather Map New forecast layout! Learn more

10-Day Weather Forecast

Advertisements
Track Severe Weather on mobile